Time;durP1;ratioP1;P1;durP2;ratioP2;P2;SDS_P1;SDS_P2;PMS_P1;PMS_P2;Temp;Humidity;BMP_temperature;BMP_pressure;BME280_temperature;BME280_humidity;BME280_pressure;Samples;Min_cycle;Max_cycle;Signal;HPM_P1;HPM_P2
2023/12/23 00:00:36;;;;;;;;;;;7.80;87.80;;;;;;5085590;28;19931;-66
2023/12/23 00:03:09;;;;;;;;;;;7.90;87.40;;;;;;5088066;28;20015;-65
2023/12/23 00:05:43;;;;;;;;;;;7.80;87.40;;;;;;5080038;28;19924;-66
2023/12/23 00:08:16;;;;;;;;;;;7.80;87.40;;;;;;5087488;28;19936;-65
2023/12/23 00:10:50;;;;;;;;;;;7.80;87.40;;;;;;5087204;28;19999;-66
2023/12/23 00:13:24;;;;;;;;;;;7.80;87.40;;;;;;5086319;28;20011;-66
2023/12/23 00:15:57;;;;;;;;;;;7.90;87.50;;;;;;5086009;28;19928;-65
2023/12/23 00:18:30;;;;;;;;;;;7.80;87.30;;;;;;5086957;28;19924;-65
2023/12/23 00:21:03;;;;;;;;;;;7.70;87.20;;;;;;5087514;28;19924;-65
2023/12/23 00:23:37;;;;;;;;;;;7.70;87.00;;;;;;5087404;27;20379;-65
2023/12/23 00:26:11;;;;;;;;;;;7.70;86.80;;;;;;5088463;28;19924;-66
2023/12/23 00:28:45;;;;;;;;;;;7.70;87.00;;;;;;5088527;28;19989;-66
2023/12/23 00:31:18;;;;;;;;;;;7.70;86.80;;;;;;5081054;28;19924;-59
2023/12/23 00:33:52;;;;;;;;;;;7.70;86.70;;;;;;5088786;28;19979;-59
2023/12/23 00:36:25;;;;;;;;;;;7.70;86.40;;;;;;5087400;28;19935;-58
2023/12/23 00:38:58;;;;;;;;;;;7.70;86.40;;;;;;5086318;28;19932;-58
2023/12/23 00:41:32;;;;;;;;;;;7.70;86.40;;;;;;5088507;28;20350;-58
2023/12/23 00:43:59;;;;;;;;;;;7.70;86.40;;;;;;5090682;28;19963;-59
2023/12/23 00:46:32;;;;;;;;;;;7.70;86.70;;;;;;5089519;28;19924;-59
2023/12/23 00:49:05;;;;;;;;;;;7.70;86.30;;;;;;5085627;28;19931;-60
2023/12/23 00:51:38;;;;;;;;;;;7.60;86.00;;;;;;5087100;28;19930;-59
2023/12/23 00:54:11;;;;;;;;;;;7.60;85.90;;;;;;5087784;28;19956;-60
2023/12/23 00:56:45;;;;;;;;;;;7.60;85.90;;;;;;5088216;28;19974;-59
2023/12/23 00:59:19;;;;;;;;;;;7.60;85.70;;;;;;5083099;28;19932;-59
2023/12/23 01:01:52;;;;;;;;;;;7.60;86.10;;;;;;5081835;28;19928;-60
2023/12/23 01:04:25;;;;;;;;;;;7.60;85.60;;;;;;5086283;27;20046;-58
2023/12/23 01:06:58;;;;;;;;;;;7.60;85.50;;;;;;5083551;28;19924;-61
2023/12/23 01:09:31;;;;;;;;;;;7.60;85.60;;;;;;5086655;28;19928;-60
2023/12/23 01:12:06;;;;;;;;;;;7.60;85.70;;;;;;5087854;28;19933;-59
2023/12/23 01:14:40;;;;;;;;;;;7.60;85.50;;;;;;5082713;28;20019;-59
2023/12/23 01:17:13;;;;;;;;;;;7.60;85.60;;;;;;5087102;28;19931;-60
2023/12/23 01:19:45;;;;;;;;;;;7.60;85.60;;;;;;5102026;28;19998;-59
2023/12/23 01:22:13;;;;;;;;;;;7.60;85.80;;;;;;5085006;28;20838;-59
2023/12/23 01:24:46;;;;;;;;;;;7.60;85.80;;;;;;5086201;28;19927;-59
2023/12/23 01:27:20;;;;;;;;;;;7.60;85.80;;;;;;5087066;28;19995;-60
2023/12/23 01:29:54;;;;;;;;;;;7.60;85.70;;;;;;5086975;28;19924;-58
2023/12/23 01:32:34;;;;;;;;;;;7.60;85.80;;;;;;5078948;28;20020;-59
2023/12/23 01:35:07;;;;;;;;;;;7.50;85.80;;;;;;5087007;28;20301;-59
2023/12/23 01:37:41;;;;;;;;;;;7.60;86.00;;;;;;5079703;28;19936;-59
2023/12/23 01:40:15;;;;;;;;;;;7.50;86.00;;;;;;5083167;28;19931;-61
2023/12/23 01:42:49;;;;;;;;;;;7.60;86.10;;;;;;5089226;28;20442;-60
2023/12/23 01:45:16;;;;;;;;;;;7.50;85.90;;;;;;5091516;27;19928;-60
2023/12/23 01:47:50;;;;;;;;;;;7.50;86.00;;;;;;5090928;28;19928;-61
2023/12/23 01:50:25;;;;;;;;;;;7.50;85.90;;;;;;5090700;28;19982;-61
2023/12/23 01:53:00;;;;;;;;;;;7.50;85.90;;;;;;5092146;28;20386;-60
2023/12/23 01:55:34;;;;;;;;;;;7.50;86.10;;;;;;5091507;28;19931;-58
2023/12/23 01:58:09;;;;;;;;;;;7.50;86.10;;;;;;5104150;28;19928;-60
2023/12/23 02:00:49;;;;;;;;;;;7.50;86.10;;;;;;5090092;28;19966;-59
2023/12/23 02:03:22;;;;;;;;;;;7.40;86.10;;;;;;5090798;28;19931;-60
2023/12/23 02:05:56;;;;;;;;;;;7.50;86.10;;;;;;5089514;28;19928;-60
2023/12/23 02:08:29;;;;;;;;;;;7.50;86.10;;;;;;5091217;28;19928;-60
2023/12/23 02:11:05;;;;;;;;;;;7.40;86.20;;;;;;5103739;28;19932;-60
2023/12/23 02:13:43;;;;;;;;;;;7.50;86.10;;;;;;5088544;28;19928;-61
2023/12/23 02:16:16;;;;;;;;;;;7.40;86.20;;;;;;5090132;28;20784;-60
2023/12/23 02:18:50;;;;;;;;;;;7.50;86.10;;;;;;5085734;28;19932;-60
2023/12/23 02:21:25;;;;;;;;;;;7.50;86.20;;;;;;5090987;28;19924;-60
2023/12/23 02:23:58;;;;;;;;;;;7.40;86.10;;;;;;5091046;27;20379;-61
2023/12/23 02:26:32;;;;;;;;;;;7.50;86.30;;;;;;5088849;28;19947;-58
2023/12/23 02:29:06;;;;;;;;;;;7.40;86.50;;;;;;5085190;28;19928;-60
2023/12/23 02:31:39;;;;;;;;;;;7.40;86.50;;;;;;5090159;28;20398;-59
2023/12/23 02:34:13;;;;;;;;;;;7.40;86.50;;;;;;5089571;28;19924;-60
2023/12/23 02:36:47;;;;;;;;;;;7.40;86.60;;;;;;5091348;28;19931;-60
2023/12/23 02:39:22;;;;;;;;;;;7.40;86.70;;;;;;5088842;28;19928;-59
2023/12/23 02:41:55;;;;;;;;;;;7.40;86.70;;;;;;5089330;28;19931;-61
2023/12/23 02:44:28;;;;;;;;;;;7.40;86.60;;;;;;5090689;28;19932;-61
2023/12/23 02:47:01;;;;;;;;;;;7.40;86.70;;;;;;5090433;28;19943;-60
2023/12/23 02:49:34;;;;;;;;;;;7.40;86.60;;;;;;5082786;28;19935;-60
2023/12/23 02:52:08;;;;;;;;;;;7.40;86.60;;;;;;5092420;28;20003;-61
2023/12/23 02:54:42;;;;;;;;;;;7.40;86.70;;;;;;5090006;28;20015;-63
2023/12/23 02:57:15;;;;;;;;;;;7.40;86.70;;;;;;5089686;28;19927;-62
2023/12/23 02:59:48;;;;;;;;;;;7.40;86.70;;;;;;5085501;28;19924;-61
2023/12/23 03:02:21;;;;;;;;;;;7.40;86.70;;;;;;5089513;28;20010;-62
2023/12/23 03:04:54;;;;;;;;;;;7.40;86.80;;;;;;5086334;28;19959;-61
2023/12/23 03:07:28;;;;;;;;;;;7.30;86.70;;;;;;5090573;28;19925;-62
2023/12/23 03:10:02;;;;;;;;;;;7.30;86.70;;;;;;5089547;28;19959;-61
2023/12/23 03:12:35;;;;;;;;;;;7.30;86.70;;;;;;5089812;27;20019;-63
2023/12/23 03:15:09;;;;;;;;;;;7.40;86.90;;;;;;5085023;28;19928;-64
2023/12/23 03:17:42;;;;;;;;;;;7.30;86.80;;;;;;5086418;27;19931;-62
2023/12/23 03:20:15;;;;;;;;;;;7.30;86.90;;;;;;5089754;28;19939;-62
2023/12/23 03:22:43;;;;;;;;;;;7.30;87.00;;;;;;5089844;28;19939;-62
2023/12/23 03:25:17;;;;;;;;;;;7.30;87.10;;;;;;5080548;28;19935;-63
2023/12/23 03:27:50;;;;;;;;;;;7.30;87.30;;;;;;5086640;28;20038;-62
2023/12/23 03:30:23;;;;;;;;;;;7.30;87.30;;;;;;5088235;28;19932;-61
2023/12/23 03:32:56;;;;;;;;;;;7.30;87.50;;;;;;5082085;28;20034;-61
2023/12/23 03:35:29;;;;;;;;;;;7.20;87.60;;;;;;5089587;28;20982;-60
2023/12/23 03:38:03;;;;;;;;;;;7.30;87.70;;;;;;5089691;28;20028;-61
2023/12/23 03:40:37;;;;;;;;;;;7.20;87.80;;;;;;5088373;28;19928;-62
2023/12/23 03:43:10;;;;;;;;;;;7.20;88.00;;;;;;5088732;28;19928;-63
2023/12/23 03:45:45;;;;;;;;;;;7.20;88.10;;;;;;5087361;28;19925;-63
2023/12/23 03:48:18;;;;;;;;;;;7.20;88.10;;;;;;5089470;28;19935;-62
2023/12/23 03:50:51;;;;;;;;;;;7.20;88.20;;;;;;5081295;28;19932;-61
2023/12/23 03:53:25;;;;;;;;;;;7.20;88.20;;;;;;5086650;28;20397;-61
2023/12/23 03:55:59;;;;;;;;;;;7.20;88.20;;;;;;5087201;28;20014;-62
2023/12/23 03:58:32;;;;;;;;;;;7.20;88.20;;;;;;5089999;28;19924;-60
2023/12/23 04:01:05;;;;;;;;;;;7.20;88.30;;;;;;5085496;28;19927;-71
2023/12/23 04:03:38;;;;;;;;;;;7.20;88.30;;;;;;5089248;28;20367;-60
2023/12/23 04:06:12;;;;;;;;;;;7.20;88.30;;;;;;5088633;28;20007;-60
2023/12/23 04:08:47;;;;;;;;;;;7.20;88.30;;;;;;5088632;28;19928;-59
2023/12/23 04:11:20;;;;;;;;;;;7.20;88.40;;;;;;5085984;28;20310;-58
2023/12/23 04:13:53;;;;;;;;;;;7.20;88.40;;;;;;5084813;28;19924;-59
2023/12/23 04:16:26;;;;;;;;;;;7.20;88.60;;;;;;5085487;28;19928;-59
2023/12/23 04:18:59;;;;;;;;;;;7.20;88.80;;;;;;5085607;28;19924;-58
2023/12/23 04:21:26;;;;;;;;;;;7.20;88.80;;;;;;5078804;28;19932;-58
2023/12/23 04:24:01;;;;;;;;;;;7.20;88.80;;;;;;5088347;28;19982;-59
2023/12/23 04:26:34;;;;;;;;;;;7.10;89.00;;;;;;5084041;28;19935;-59
2023/12/23 04:29:07;;;;;;;;;;;7.20;89.10;;;;;;5087490;28;20438;-60
2023/12/23 04:31:41;;;;;;;;;;;7.20;89.20;;;;;;5089140;27;20302;-58
2023/12/23 04:34:14;;;;;;;;;;;7.10;89.40;;;;;;5088571;28;19928;-59
2023/12/23 04:36:48;;;;;;;;;;;7.10;89.60;;;;;;5086568;28;19928;-59
2023/12/23 04:39:23;;;;;;;;;;;7.10;89.70;;;;;;5086380;28;19939;-59
2023/12/23 04:41:57;;;;;;;;;;;7.10;89.60;;;;;;5086549;28;19951;-58
2023/12/23 04:44:31;;;;;;;;;;;7.10;89.90;;;;;;5079422;28;20019;-58
2023/12/23 04:47:05;;;;;;;;;;;7.10;89.90;;;;;;5088898;28;19924;-60
2023/12/23 04:49:38;;;;;;;;;;;7.20;89.80;;;;;;5090030;28;19924;-59
2023/12/23 04:52:12;;;;;;;;;;;7.10;90.00;;;;;;5084497;28;19935;-57
2023/12/23 04:54:47;;;;;;;;;;;7.10;90.20;;;;;;5086555;28;19935;-57
2023/12/23 04:57:13;;;;;;;;;;;7.20;90.20;;;;;;5081112;28;19924;-58
2023/12/23 04:59:46;;;;;;;;;;;7.20;90.10;;;;;;5088918;28;19924;-57
2023/12/23 05:02:19;;;;;;;;;;;7.20;90.20;;;;;;5090195;27;19924;-60
2023/12/23 05:04:52;;;;;;;;;;;7.20;90.20;;;;;;5090665;28;19924;-55
2023/12/23 05:07:25;;;;;;;;;;;7.20;90.30;;;;;;5089105;28;19928;-58
2023/12/23 05:10:00;;;;;;;;;;;7.10;90.30;;;;;;5089569;27;20003;-58
2023/12/23 05:12:33;;;;;;;;;;;7.20;90.30;;;;;;5080674;28;20556;-59
2023/12/23 05:15:07;;;;;;;;;;;7.20;90.40;;;;;;5085872;28;19935;-60
2023/12/23 05:17:40;;;;;;;;;;;7.20;90.40;;;;;;5084585;28;19932;-60
2023/12/23 05:20:13;;;;;;;;;;;7.20;90.50;;;;;;5092141;28;19931;-61
2023/12/23 05:22:46;;;;;;;;;;;7.20;90.40;;;;;;5082987;28;20885;-59
2023/12/23 05:25:21;;;;;;;;;;;7.20;90.40;;;;;;5080536;28;19924;-59
2023/12/23 05:27:55;;;;;;;;;;;7.20;90.60;;;;;;5088553;28;19928;-60
2023/12/23 05:30:29;;;;;;;;;;;7.20;90.70;;;;;;5093385;28;19933;-59
2023/12/23 05:33:02;;;;;;;;;;;7.20;90.70;;;;;;5092258;28;19949;-61
2023/12/23 05:35:35;;;;;;;;;;;7.30;90.80;;;;;;5092678;28;19925;-61
2023/12/23 05:38:08;;;;;;;;;;;7.30;90.80;;;;;;5090201;28;19982;-61
2023/12/23 05:40:43;;;;;;;;;;;7.30;90.90;;;;;;5091376;28;20007;-60
2023/12/23 05:43:16;;;;;;;;;;;7.30;91.00;;;;;;5089745;28;19924;-59
2023/12/23 05:45:49;;;;;;;;;;;7.30;91.00;;;;;;5087161;28;19943;-60
2023/12/23 05:48:22;;;;;;;;;;;7.30;91.30;;;;;;5092776;28;19931;-58
2023/12/23 05:50:55;;;;;;;;;;;7.30;91.40;;;;;;5088098;28;19924;-59
2023/12/23 05:53:28;;;;;;;;;;;7.40;91.30;;;;;;5081927;28;19932;-61
2023/12/23 05:56:05;;;;;;;;;;;7.30;91.30;;;;;;5079669;28;19932;-60
2023/12/23 05:58:38;;;;;;;;;;;7.40;91.40;;;;;;5084016;28;19928;-60
2023/12/23 06:01:11;;;;;;;;;;;7.40;91.50;;;;;;5080915;28;19928;-60
2023/12/23 06:03:44;;;;;;;;;;;7.40;91.50;;;;;;5081591;28;20259;-59
2023/12/23 06:06:17;;;;;;;;;;;7.40;91.50;;;;;;5086017;28;20015;-61
2023/12/23 06:08:50;;;;;;;;;;;7.50;91.60;;;;;;5083566;28;19924;-60
2023/12/23 06:11:25;;;;;;;;;;;7.50;91.50;;;;;;5085004;28;19935;-61
2023/12/23 06:13:58;;;;;;;;;;;7.50;91.50;;;;;;5087049;28;19935;-60
2023/12/23 06:16:31;;;;;;;;;;;7.50;91.50;;;;;;5084681;28;19934;-60
2023/12/23 06:19:04;;;;;;;;;;;7.50;91.50;;;;;;5083524;28;19931;-59
2023/12/23 06:21:46;;;;;;;;;;;7.60;91.50;;;;;;5082336;28;19939;-72
2023/12/23 06:24:19;;;;;;;;;;;7.60;91.50;;;;;;5086745;28;19932;-71
2023/12/23 06:26:54;;;;;;;;;;;7.50;91.50;;;;;;5087999;27;20375;-72
2023/12/23 06:29:27;;;;;;;;;;;7.60;91.60;;;;;;5087027;28;19967;-71
2023/12/23 06:32:01;;;;;;;;;;;7.50;91.60;;;;;;5083205;27;19931;-71
2023/12/23 06:34:34;;;;;;;;;;;7.50;91.70;;;;;;5086128;28;19932;-71
2023/12/23 06:37:07;;;;;;;;;;;7.60;91.70;;;;;;5086229;28;19928;-70
2023/12/23 06:39:40;;;;;;;;;;;7.60;91.60;;;;;;5086789;28;19982;-72
2023/12/23 06:42:15;;;;;;;;;;;7.60;91.70;;;;;;5091400;28;20298;-71
2023/12/23 06:44:48;;;;;;;;;;;7.60;91.60;;;;;;5086434;28;19932;-71
2023/12/23 06:47:21;;;;;;;;;;;7.60;91.70;;;;;;5093197;28;20457;-72
2023/12/23 06:49:54;;;;;;;;;;;7.60;91.70;;;;;;5091637;27;19924;-71
2023/12/23 06:52:27;;;;;;;;;;;7.60;91.70;;;;;;5086594;28;19987;-70
2023/12/23 06:55:07;;;;;;;;;;;7.60;91.80;;;;;;5089454;28;19928;-71
2023/12/23 06:57:42;;;;;;;;;;;7.60;91.80;;;;;;5087883;28;20031;-71
2023/12/23 07:00:16;;;;;;;;;;;7.70;91.80;;;;;;5082906;28;19930;-72
2023/12/23 07:02:51;;;;;;;;;;;7.60;91.80;;;;;;5090893;28;19934;-71
2023/12/23 07:05:24;;;;;;;;;;;7.60;91.90;;;;;;5081668;28;19929;-72
2023/12/23 07:07:57;;;;;;;;;;;7.60;91.90;;;;;;5086213;28;19928;-72
2023/12/23 07:10:30;;;;;;;;;;;7.60;92.00;;;;;;5086011;28;20005;-72
2023/12/23 07:13:05;;;;;;;;;;;7.70;92.00;;;;;;5088135;28;19924;-72
2023/12/23 07:15:38;;;;;;;;;;;7.70;92.00;;;;;;5086534;28;19988;-70
2023/12/23 07:18:11;;;;;;;;;;;7.60;92.00;;;;;;5091177;28;20290;-72
2023/12/23 07:20:46;;;;;;;;;;;7.70;92.00;;;;;;5086132;28;19954;-70
2023/12/23 07:23:19;;;;;;;;;;;7.70;92.10;;;;;;5085811;28;19928;-70
2023/12/23 07:25:52;;;;;;;;;;;7.70;92.10;;;;;;5086841;27;19932;-70
2023/12/23 07:28:29;;;;;;;;;;;7.70;92.10;;;;;;5082452;28;19993;-71
2023/12/23 07:31:02;;;;;;;;;;;7.70;92.20;;;;;;5091211;28;19935;-70
2023/12/23 07:33:35;;;;;;;;;;;7.70;92.30;;;;;;5088624;28;20046;-72
2023/12/23 07:36:08;;;;;;;;;;;7.70;92.20;;;;;;5087868;27;19928;-68
2023/12/23 07:38:41;;;;;;;;;;;7.70;92.20;;;;;;5087403;28;19931;-72
2023/12/23 07:41:15;;;;;;;;;;;7.70;92.20;;;;;;5089140;28;20374;-71
2023/12/23 07:43:50;;;;;;;;;;;7.70;92.20;;;;;;5084845;28;20286;-71
2023/12/23 07:46:24;;;;;;;;;;;7.80;92.20;;;;;;5086924;28;19931;-71
2023/12/23 07:48:57;;;;;;;;;;;7.70;92.20;;;;;;5089545;27;20026;-71
2023/12/23 07:51:30;;;;;;;;;;;7.80;92.30;;;;;;5086054;28;19924;-72
2023/12/23 07:54:03;;;;;;;;;;;7.70;92.30;;;;;;5081734;28;19955;-71
2023/12/23 07:56:36;;;;;;;;;;;7.80;92.30;;;;;;5078237;28;20426;-71
2023/12/23 07:59:11;;;;;;;;;;;7.80;92.30;;;;;;5088387;28;20402;-70
2023/12/23 08:01:44;;;;;;;;;;;7.80;92.30;;;;;;5083978;28;19924;-70
2023/12/23 08:04:11;;;;;;;;;;;7.80;92.30;;;;;;5087978;28;19931;-71
2023/12/23 08:06:44;;;;;;;;;;;7.80;92.30;;;;;;5087617;28;19947;-71
2023/12/23 08:09:17;;;;;;;;;;;7.90;92.30;;;;;;5089141;28;19935;-72
2023/12/23 08:11:50;;;;;;;;;;;7.90;92.30;;;;;;5082515;28;19924;-71
2023/12/23 08:14:25;;;;;;;;;;;7.90;92.30;;;;;;5087572;28;19928;-72
2023/12/23 08:16:58;;;;;;;;;;;7.90;92.20;;;;;;5085782;28;19928;-72
2023/12/23 08:19:31;;;;;;;;;;;7.90;92.30;;;;;;5081281;28;19928;-71
2023/12/23 08:22:05;;;;;;;;;;;7.90;92.30;;;;;;5087495;28;20575;-71
2023/12/23 08:24:39;;;;;;;;;;;7.90;92.30;;;;;;5090022;27;19931;-73
2023/12/23 08:27:13;;;;;;;;;;;7.90;92.30;;;;;;5088183;28;19930;-71
2023/12/23 08:29:48;;;;;;;;;;;7.90;92.30;;;;;;5089512;28;19934;-71
2023/12/23 08:32:21;;;;;;;;;;;7.90;92.30;;;;;;5087298;28;20291;-71
2023/12/23 08:34:55;;;;;;;;;;;8.00;92.30;;;;;;5086450;28;19934;-71
2023/12/23 08:37:28;;;;;;;;;;;7.90;92.30;;;;;;5085165;28;21068;-71
2023/12/23 08:40:01;;;;;;;;;;;8.00;92.30;;;;;;5085649;28;19924;-70
2023/12/23 08:42:34;;;;;;;;;;;7.90;92.30;;;;;;5077405;28;20019;-60
2023/12/23 08:45:09;;;;;;;;;;;7.90;92.30;;;;;;5086268;28;20035;-60
2023/12/23 08:47:42;;;;;;;;;;;8.00;92.20;;;;;;5088125;28;19931;-60
2023/12/23 08:50:15;;;;;;;;;;;8.00;92.20;;;;;;5082293;28;19931;-59
2023/12/23 08:52:48;;;;;;;;;;;8.00;92.20;;;;;;5081660;28;19934;-60
2023/12/23 08:55:22;;;;;;;;;;;8.00;92.20;;;;;;5085327;28;19924;-61
2023/12/23 08:57:55;;;;;;;;;;;8.00;92.20;;;;;;5084021;28;19925;-59
2023/12/23 09:00:37;;;;;;;;;;;8.00;92.10;;;;;;5087609;27;19932;-61
2023/12/23 09:03:10;;;;;;;;;;;8.10;92.20;;;;;;5083531;28;19931;-61
2023/12/23 09:05:43;;;;;;;;;;;8.10;92.20;;;;;;5083610;28;19935;-60
2023/12/23 09:08:17;;;;;;;;;;;8.00;92.10;;;;;;5083578;28;20294;-60
2023/12/23 09:10:50;;;;;;;;;;;8.10;92.10;;;;;;5082714;28;20282;-60
2023/12/23 09:13:23;;;;;;;;;;;8.10;92.10;;;;;;5074781;28;19932;-60
2023/12/23 09:15:59;;;;;;;;;;;8.10;92.10;;;;;;5089062;28;19967;-59
2023/12/23 09:18:32;;;;;;;;;;;8.10;92.10;;;;;;5086205;28;19974;-60
2023/12/23 09:21:05;;;;;;;;;;;8.10;92.00;;;;;;5083783;28;20298;-60
2023/12/23 09:23:38;;;;;;;;;;;8.10;92.00;;;;;;5086982;28;19928;-60
2023/12/23 09:26:13;;;;;;;;;;;8.10;91.90;;;;;;5089568;28;19951;-61
2023/12/23 09:28:46;;;;;;;;;;;8.20;92.00;;;;;;5089205;28;19935;-60
2023/12/23 09:31:21;;;;;;;;;;;8.20;91.90;;;;;;5077474;28;19935;-59
2023/12/23 09:33:54;;;;;;;;;;;8.20;91.90;;;;;;5087716;28;19924;-59
2023/12/23 09:36:27;;;;;;;;;;;8.30;91.90;;;;;;5086297;28;19931;-59
2023/12/23 09:39:00;;;;;;;;;;;8.20;91.90;;;;;;5083075;28;19924;-60
2023/12/23 09:41:33;;;;;;;;;;;8.30;91.90;;;;;;5087294;28;20010;-59
2023/12/23 09:44:07;;;;;;;;;;;8.20;91.90;;;;;;5086479;27;19924;-61
2023/12/23 09:46:36;;;;;;;;;;;8.30;91.80;;;;;;5082265;28;19924;-59
2023/12/23 09:49:09;;;;;;;;;;;8.30;91.90;;;;;;5083970;27;20319;-62
2023/12/23 09:51:44;;;;;;;;;;;8.30;91.80;;;;;;5083005;28;19935;-62
2023/12/23 09:54:20;;;;;;;;;;;8.30;91.80;;;;;;5083269;28;20297;-60
2023/12/23 09:56:54;;;;;;;;;;;8.30;91.80;;;;;;5082409;28;19932;-61
2023/12/23 09:59:27;;;;;;;;;;;8.30;91.80;;;;;;5084195;28;19947;-61
2023/12/23 10:02:02;;;;;;;;;;;8.30;91.80;;;;;;5088163;28;19931;-61
2023/12/23 10:04:35;;;;;;;;;;;8.40;91.80;;;;;;5084572;28;19928;-60
2023/12/23 10:07:08;;;;;;;;;;;8.30;91.90;;;;;;5081638;28;19951;-62
2023/12/23 10:09:42;;;;;;;;;;;8.30;91.80;;;;;;5086524;28;19950;-61
2023/12/23 10:12:14;;;;;;;;;;;8.30;91.90;;;;;;5088368;28;19990;-61
2023/12/23 10:14:48;;;;;;;;;;;8.40;91.80;;;;;;5092645;28;19928;-61
2023/12/23 10:17:23;;;;;;;;;;;8.40;91.80;;;;;;5084394;28;19924;-61
2023/12/23 10:19:56;;;;;;;;;;;8.40;91.90;;;;;;5090685;28;19931;-61
2023/12/23 10:22:23;;;;;;;;;;;8.40;91.90;;;;;;5089332;28;20099;-61
2023/12/23 10:24:57;;;;;;;;;;;8.40;92.00;;;;;;5090176;28;19935;-61
2023/12/23 10:27:32;;;;;;;;;;;8.30;92.00;;;;;;5091176;28;20359;-62
2023/12/23 10:30:08;;;;;;;;;;;8.40;92.00;;;;;;5089159;28;19939;-61
2023/12/23 10:32:45;;;;;;;;;;;8.40;92.10;;;;;;5090135;28;19971;-60
2023/12/23 10:35:20;;;;;;;;;;;8.30;92.10;;;;;;5084316;28;19963;-61
2023/12/23 10:37:55;;;;;;;;;;;8.30;92.10;;;;;;5084804;28;19943;-61
2023/12/23 10:40:29;;;;;;;;;;;8.30;92.20;;;;;;5087946;28;19992;-61
2023/12/23 10:42:58;;;;;;;;;;;8.30;92.20;;;;;;5090210;28;19928;-61
2023/12/23 10:45:32;;;;;;;;;;;8.40;92.20;;;;;;5092421;28;19955;-62
2023/12/23 10:48:01;;;;;;;;;;;8.40;92.20;;;;;;5085330;28;19924;-62
2023/12/23 10:50:35;;;;;;;;;;;8.30;92.20;;;;;;5087463;28;19981;-61
2023/12/23 10:53:12;;;;;;;;;;;8.30;92.30;;;;;;5088200;27;20400;-63
2023/12/23 10:55:47;;;;;;;;;;;8.30;92.20;;;;;;5090025;28;19967;-59
2023/12/23 10:58:21;;;;;;;;;;;8.40;92.30;;;;;;5085699;28;20036;-62
2023/12/23 11:00:55;;;;;;;;;;;8.30;92.20;;;;;;5081840;28;19932;-61
2023/12/23 11:03:25;;;;;;;;;;;8.30;92.30;;;;;;5089729;28;19931;-60
2023/12/23 11:06:00;;;;;;;;;;;8.30;92.30;;;;;;5088344;28;19924;-59
2023/12/23 11:08:33;;;;;;;;;;;8.40;92.30;;;;;;5087029;28;19928;-61
2023/12/23 11:11:13;;;;;;;;;;;8.40;92.30;;;;;;5084623;28;20058;-60
2023/12/23 11:13:46;;;;;;;;;;;8.40;92.40;;;;;;5083282;28;19970;-59
2023/12/23 11:16:19;;;;;;;;;;;8.40;92.40;;;;;;5083850;27;19977;-61
2023/12/23 11:18:55;;;;;;;;;;;8.40;92.40;;;;;;5084131;28;19932;-60
2023/12/23 11:21:34;;;;;;;;;;;8.40;92.40;;;;;;5087195;27;19932;-59
2023/12/23 11:24:22;;;;;;;;;;;8.40;92.40;;;;;;5086912;28;19969;-59
2023/12/23 11:26:55;;;;;;;;;;;8.40;92.30;;;;;;5087355;28;19935;-59
2023/12/23 11:30:18;;;;;;;;;;;8.50;92.30;;;;;;5098782;27;19924;-60
2023/12/23 11:32:52;;;;;;;;;;;8.50;92.30;;;;;;5107618;27;20282;-60
2023/12/23 11:35:33;;;;;;;;;;;8.50;92.30;;;;;;5110514;27;19981;-59
2023/12/23 11:38:10;;;;;;;;;;;8.40;92.30;;;;;;5102959;27;20098;-59
2023/12/23 11:40:43;;;;;;;;;;;8.40;92.30;;;;;;5097725;27;19928;-60
2023/12/23 11:43:16;;;;;;;;;;;8.40;92.40;;;;;;5103655;27;19935;-60
2023/12/23 11:45:45;;;;;;;;;;;8.50;92.30;;;;;;5105129;27;19936;-59
2023/12/23 11:48:20;;;;;;;;;;;8.40;92.30;;;;;;5102511;27;19928;-60
2023/12/23 11:50:55;;;;;;;;;;;8.50;92.30;;;;;;5083192;28;19931;-60
2023/12/23 11:53:29;;;;;;;;;;;8.50;92.30;;;;;;5082283;28;19932;-61
2023/12/23 11:56:05;;;;;;;;;;;8.60;92.30;;;;;;5082589;28;20271;-59
2023/12/23 11:58:38;;;;;;;;;;;8.60;92.40;;;;;;5084967;28;19973;-59
2023/12/23 12:01:13;;;;;;;;;;;8.60;92.30;;;;;;5096303;27;19931;-60
2023/12/23 12:03:47;;;;;;;;;;;8.60;92.30;;;;;;5105557;27;19927;-60
2023/12/23 12:06:21;;;;;;;;;;;8.60;92.30;;;;;;5101752;28;19947;-60
2023/12/23 12:08:55;;;;;;;;;;;8.60;92.30;;;;;;5082901;28;19933;-59
2023/12/23 12:11:35;;;;;;;;;;;8.60;92.30;;;;;;5079066;28;19950;-61
2023/12/23 12:14:10;;;;;;;;;;;8.60;92.30;;;;;;5083219;28;19951;-64
2023/12/23 12:16:44;;;;;;;;;;;8.60;92.20;;;;;;5081783;28;19970;-62
2023/12/23 12:19:18;;;;;;;;;;;8.70;92.10;;;;;;5084251;28;19924;-62
2023/12/23 12:21:45;;;;;;;;;;;8.60;92.20;;;;;;5086135;27;20345;-62
2023/12/23 12:24:18;;;;;;;;;;;8.60;92.20;;;;;;5084127;27;19925;-61
2023/12/23 12:26:52;;;;;;;;;;;8.60;92.20;;;;;;5098519;28;19935;-61
2023/12/23 12:29:26;;;;;;;;;;;8.60;92.20;;;;;;5121810;27;19924;-62
2023/12/23 12:32:00;;;;;;;;;;;8.70;92.20;;;;;;5120576;27;20026;-61
2023/12/23 12:34:34;;;;;;;;;;;8.60;92.10;;;;;;5123666;27;20022;-62
2023/12/23 12:37:08;;;;;;;;;;;8.60;92.10;;;;;;5119425;27;19931;-62
2023/12/23 12:39:41;;;;;;;;;;;8.60;92.10;;;;;;5105632;27;19925;-62
2023/12/23 12:42:15;;;;;;;;;;;8.70;92.10;;;;;;5102255;28;19931;-62
2023/12/23 12:44:49;;;;;;;;;;;8.70;92.20;;;;;;5110956;28;19971;-62
2023/12/23 12:47:19;;;;;;;;;;;8.70;92.20;;;;;;5106682;28;19935;-62
2023/12/23 12:49:52;;;;;;;;;;;8.60;92.20;;;;;;5109154;28;19980;-63
2023/12/23 12:52:26;;;;;;;;;;;8.60;92.20;;;;;;5107202;28;19928;-62
2023/12/23 12:54:59;;;;;;;;;;;8.60;92.20;;;;;;5106891;28;19924;-62
2023/12/23 12:57:32;;;;;;;;;;;8.70;92.30;;;;;;5107726;27;19924;-62
2023/12/23 13:00:07;;;;;;;;;;;8.70;92.20;;;;;;5104479;28;19924;-61
2023/12/23 13:02:43;;;;;;;;;;;8.60;92.20;;;;;;5091345;27;19969;-63
2023/12/23 13:05:16;;;;;;;;;;;8.60;92.20;;;;;;5086807;28;19959;-62
2023/12/23 13:07:50;;;;;;;;;;;8.70;92.10;;;;;;5085872;28;19928;-61
2023/12/23 13:10:24;;;;;;;;;;;8.70;92.10;;;;;;5087124;28;19924;-62
2023/12/23 13:12:57;;;;;;;;;;;8.70;92.10;;;;;;5086546;28;19928;-60
2023/12/23 13:15:30;;;;;;;;;;;8.70;92.10;;;;;;5086222;28;19974;-61
2023/12/23 13:18:06;;;;;;;;;;;8.60;92.00;;;;;;5088175;28;19971;-62
2023/12/23 13:20:39;;;;;;;;;;;8.70;92.10;;;;;;5107401;28;19927;-61
2023/12/23 13:23:13;;;;;;;;;;;8.60;92.00;;;;;;5100585;28;20509;-65
2023/12/23 13:25:46;;;;;;;;;;;8.60;92.10;;;;;;5102221;28;19928;-63
2023/12/23 13:28:19;;;;;;;;;;;8.60;92.00;;;;;;5109038;28;19934;-66
2023/12/23 13:30:52;;;;;;;;;;;8.70;92.10;;;;;;5104341;28;19928;-65
2023/12/23 13:33:28;;;;;;;;;;;8.70;92.00;;;;;;5107543;28;19928;-64
2023/12/23 13:36:04;;;;;;;;;;;8.70;92.00;;;;;;5106434;28;19923;-64
2023/12/23 13:38:37;;;;;;;;;;;8.60;92.00;;;;;;5108709;28;20042;-64
2023/12/23 13:41:06;;;;;;;;;;;8.70;92.00;;;;;;5109937;27;19927;-65
2023/12/23 13:43:39;;;;;;;;;;;8.70;91.90;;;;;;5105135;28;19932;-65
2023/12/23 13:46:13;;;;;;;;;;;8.70;91.90;;;;;;5108421;27;19934;-64
2023/12/23 13:48:47;;;;;;;;;;;8.70;91.90;;;;;;5089461;28;19931;-63
2023/12/23 13:51:21;;;;;;;;;;;8.70;91.90;;;;;;5086514;27;19924;-63
2023/12/23 13:53:54;;;;;;;;;;;8.70;91.90;;;;;;5088053;28;19931;-65
2023/12/23 13:56:28;;;;;;;;;;;8.70;92.00;;;;;;5082744;28;19977;-64
2023/12/23 13:59:01;;;;;;;;;;;8.70;92.00;;;;;;5103464;28;20018;-63
2023/12/23 14:01:34;;;;;;;;;;;8.70;91.90;;;;;;5088840;27;19931;-65
2023/12/23 14:04:08;;;;;;;;;;;8.70;92.00;;;;;;5085976;28;20027;-65
2023/12/23 14:06:42;;;;;;;;;;;8.70;92.00;;;;;;5088048;28;19932;-62
2023/12/23 14:09:15;;;;;;;;;;;8.70;91.90;;;;;;5104919;28;19931;-64
2023/12/23 14:11:48;;;;;;;;;;;8.70;91.90;;;;;;5077014;28;20054;-64
2023/12/23 14:14:21;;;;;;;;;;;8.70;91.90;;;;;;5103248;28;19960;-65
2023/12/23 14:16:54;;;;;;;;;;;8.70;91.90;;;;;;5101970;27;19924;-63
2023/12/23 14:19:28;;;;;;;;;;;8.70;91.90;;;;;;5106236;27;19950;-63
2023/12/23 14:22:02;;;;;;;;;;;8.70;91.80;;;;;;5101587;28;19939;-65
2023/12/23 14:24:35;;;;;;;;;;;8.70;91.80;;;;;;5104498;28;20393;-64
2023/12/23 14:27:08;;;;;;;;;;;8.70;91.80;;;;;;5108055;28;20285;-64
2023/12/23 14:29:45;;;;;;;;;;;8.60;91.80;;;;;;5097165;28;20018;-63
2023/12/23 14:32:18;;;;;;;;;;;8.70;91.80;;;;;;5105536;28;20010;-65
2023/12/23 14:34:52;;;;;;;;;;;8.70;91.70;;;;;;5105103;28;19924;-64
2023/12/23 14:37:25;;;;;;;;;;;8.70;91.70;;;;;;5099485;28;19933;-64
2023/12/23 14:39:58;;;;;;;;;;;8.70;91.70;;;;;;5103694;28;19932;-64
2023/12/23 14:42:31;;;;;;;;;;;8.70;91.50;;;;;;5104679;28;19924;-60
2023/12/23 14:45:05;;;;;;;;;;;8.70;91.50;;;;;;5103099;28;19928;-61
2023/12/23 14:47:39;;;;;;;;;;;8.70;91.40;;;;;;5103935;28;19931;-60
2023/12/23 14:50:15;;;;;;;;;;;8.70;91.40;;;;;;5101969;28;20345;-62
2023/12/23 14:52:48;;;;;;;;;;;8.70;91.30;;;;;;5093439;28;20303;-60
2023/12/23 14:55:21;;;;;;;;;;;8.70;91.20;;;;;;5085333;28;20011;-59
2023/12/23 14:57:54;;;;;;;;;;;8.70;91.10;;;;;;5107474;28;19923;-61
2023/12/23 15:00:27;;;;;;;;;;;8.70;91.00;;;;;;5097254;28;19932;-62
2023/12/23 15:03:00;;;;;;;;;;;8.70;91.00;;;;;;5089384;28;19932;-60
2023/12/23 15:05:35;;;;;;;;;;;8.70;91.00;;;;;;5101344;28;19955;-62
2023/12/23 15:08:08;;;;;;;;;;;8.70;90.90;;;;;;5108684;28;19932;-61